sensor_id;sensor_type;location;lat;lon;timestamp;pressure;altitude;pressure_sealevel;temperature;humidity
82784;BME280;72520;55.762;37.780;2024-01-27T00:00:51;99871.81;;;-3.24;71.86
82784;BME280;72520;55.762;37.780;2024-01-27T00:03:53;99867.56;;;-3.35;72.54
82784;BME280;72520;55.762;37.780;2024-01-27T00:06:55;99875.41;;;-3.40;72.19
82784;BME280;72520;55.762;37.780;2024-01-27T00:09:58;99871.13;;;-3.45;72.63
82784;BME280;72520;55.762;37.780;2024-01-27T00:13:00;99869.41;;;-3.45;72.53
82784;BME280;72520;55.762;37.780;2024-01-27T00:16:05;99868.56;;;-3.48;72.42
82784;BME280;72520;55.762;37.780;2024-01-27T00:19:08;99874.59;;;-3.45;72.29
82784;BME280;72520;55.762;37.780;2024-01-27T00:22:10;99875.53;;;-3.52;72.40
82784;BME280;72520;55.762;37.780;2024-01-27T00:25:13;99879.91;;;-3.58;72.12
82784;BME280;72520;55.762;37.780;2024-01-27T00:28:15;99879.06;;;-3.64;72.23
82784;BME280;72520;55.762;37.780;2024-01-27T00:31:18;99869.63;;;-3.75;72.81
82784;BME280;72520;55.762;37.780;2024-01-27T00:34:21;99860.97;;;-3.77;73.41
82784;BME280;72520;55.762;37.780;2024-01-27T00:37:23;99858.38;;;-3.77;73.39
82784;BME280;72520;55.762;37.780;2024-01-27T00:40:26;99867.06;;;-3.83;73.26
82784;BME280;72520;55.762;37.780;2024-01-27T00:43:28;99869.66;;;-3.80;73.02
82784;BME280;72520;55.762;37.780;2024-01-27T00:46:32;99878.34;;;-3.82;73.33
82784;BME280;72520;55.762;37.780;2024-01-27T00:49:34;99880.91;;;-3.79;73.19
82784;BME280;72520;55.762;37.780;2024-01-27T00:52:36;99874.81;;;-3.72;72.98
82784;BME280;72520;55.762;37.780;2024-01-27T00:55:38;99878.31;;;-3.76;73.60
82784;BME280;72520;55.762;37.780;2024-01-27T00:58:43;99870.53;;;-3.79;72.98
82784;BME280;72520;55.762;37.780;2024-01-27T01:01:47;99871.34;;;-3.73;72.67
82784;BME280;72520;55.762;37.780;2024-01-27T01:04:50;99879.13;;;-3.74;73.33
82784;BME280;72520;55.762;37.780;2024-01-27T01:07:52;99874.81;;;-3.74;73.28
82784;BME280;72520;55.762;37.780;2024-01-27T01:10:54;99881.75;;;-3.77;72.77
82784;BME280;72520;55.762;37.780;2024-01-27T01:13:59;99879.97;;;-3.69;72.68
82784;BME280;72520;55.762;37.780;2024-01-27T01:17:03;99886.91;;;-3.70;72.81
82784;BME280;72520;55.762;37.780;2024-01-27T01:20:07;99891.25;;;-3.69;72.56
82784;BME280;72520;55.762;37.780;2024-01-27T01:23:10;99884.34;;;-3.74;72.89
82784;BME280;72520;55.762;37.780;2024-01-27T01:26:12;99889.53;;;-3.68;72.81
82784;BME280;72520;55.762;37.780;2024-01-27T01:29:14;99882.53;;;-3.63;72.57
82784;BME280;72520;55.762;37.780;2024-01-27T01:32:18;99881.75;;;-3.71;72.54
82784;BME280;72520;55.762;37.780;2024-01-27T01:35:20;99882.63;;;-3.77;72.66
82784;BME280;72520;55.762;37.780;2024-01-27T01:38:22;99882.66;;;-3.78;73.11
82784;BME280;72520;55.762;37.780;2024-01-27T01:41:24;99884.38;;;-3.80;72.57
82784;BME280;72520;55.762;37.780;2024-01-27T01:44:29;99883.56;;;-3.87;72.98
82784;BME280;72520;55.762;37.780;2024-01-27T01:47:33;99887.88;;;-3.84;72.84
82784;BME280;72520;55.762;37.780;2024-01-27T01:50:37;99890.50;;;-3.86;72.96
82784;BME280;72520;55.762;37.780;2024-01-27T01:53:39;99887.00;;;-3.82;72.72
82784;BME280;72520;55.762;37.780;2024-01-27T01:56:42;99886.09;;;-3.76;72.85
82784;BME280;72520;55.762;37.780;2024-01-27T01:59:44;99886.09;;;-3.75;72.94
82784;BME280;72520;55.762;37.780;2024-01-27T02:02:48;99887.88;;;-3.81;72.96
82784;BME280;72520;55.762;37.780;2024-01-27T02:05:50;99889.56;;;-3.77;72.60
82784;BME280;72520;55.762;37.780;2024-01-27T02:08:52;99887.81;;;-3.74;72.27
82784;BME280;72520;55.762;37.780;2024-01-27T02:11:55;99900.84;;;-3.80;72.98
82784;BME280;72520;55.762;37.780;2024-01-27T02:14:57;99902.59;;;-3.80;72.68
82784;BME280;72520;55.762;37.780;2024-01-27T02:18:01;99903.47;;;-3.84;72.53
82784;BME280;72520;55.762;37.780;2024-01-27T02:21:03;99918.25;;;-3.94;72.65
82784;BME280;72520;55.762;37.780;2024-01-27T02:24:08;99916.47;;;-3.84;72.66
82784;BME280;72520;55.762;37.780;2024-01-27T02:27:11;99912.16;;;-3.82;72.84
82784;BME280;72520;55.762;37.780;2024-01-27T02:30:13;99927.75;;;-3.85;72.33
82784;BME280;72520;55.762;37.780;2024-01-27T02:33:15;99922.59;;;-3.88;72.87
82784;BME280;72520;55.762;37.780;2024-01-27T02:36:18;99920.84;;;-3.91;72.58
82784;BME280;72520;55.762;37.780;2024-01-27T02:39:21;99922.59;;;-3.88;72.23
82784;BME280;72520;55.762;37.780;2024-01-27T02:42:23;99917.31;;;-3.76;72.10
82784;BME280;72520;55.762;37.780;2024-01-27T02:45:26;99926.84;;;-3.78;72.82
82784;BME280;72520;55.762;37.780;2024-01-27T02:48:28;99932.00;;;-3.71;72.48
82784;BME280;72520;55.762;37.780;2024-01-27T02:51:30;99923.34;;;-3.74;71.93
82784;BME280;72520;55.762;37.780;2024-01-27T02:54:34;99940.69;;;-3.72;72.16
82784;BME280;72520;55.762;37.780;2024-01-27T02:57:36;99936.38;;;-3.80;72.14
82784;BME280;72520;55.762;37.780;2024-01-27T03:00:38;99937.28;;;-3.86;72.63
82784;BME280;72520;55.762;37.780;2024-01-27T03:03:41;99936.50;;;-3.95;72.57
82784;BME280;72520;55.762;37.780;2024-01-27T03:06:43;99939.13;;;-4.01;72.62
82784;BME280;72520;55.762;37.780;2024-01-27T03:09:47;99933.06;;;-4.03;72.94
82784;BME280;72520;55.762;37.780;2024-01-27T03:12:49;99934.78;;;-4.02;72.84
82784;BME280;72520;55.762;37.780;2024-01-27T03:15:51;99927.00;;;-4.02;72.90
82784;BME280;72520;55.762;37.780;2024-01-27T03:18:54;99929.59;;;-4.05;72.14
82784;BME280;72520;55.762;37.780;2024-01-27T03:21:56;99931.31;;;-3.98;72.12
82784;BME280;72520;55.762;37.780;2024-01-27T03:25:00;99934.81;;;-4.07;72.13
82784;BME280;72520;55.762;37.780;2024-01-27T03:28:04;99946.91;;;-4.04;71.98
82784;BME280;72520;55.762;37.780;2024-01-27T03:31:07;99948.69;;;-4.09;72.05
82784;BME280;72520;55.762;37.780;2024-01-27T03:34:09;99947.81;;;-4.12;72.34
82784;BME280;72520;55.762;37.780;2024-01-27T03:37:11;99952.13;;;-4.07;72.05
82784;BME280;72520;55.762;37.780;2024-01-27T03:40:15;99962.56;;;-4.14;72.01
82784;BME280;72520;55.762;37.780;2024-01-27T03:43:19;99964.28;;;-4.09;72.38
82784;BME280;72520;55.762;37.780;2024-01-27T03:46:21;99963.41;;;-4.10;71.89
82784;BME280;72520;55.762;37.780;2024-01-27T03:49:24;99963.44;;;-4.19;72.11
82784;BME280;72520;55.762;37.780;2024-01-27T03:52:26;99965.19;;;-4.23;71.64
82784;BME280;72520;55.762;37.780;2024-01-27T03:55:29;99965.19;;;-4.23;71.99
82784;BME280;72520;55.762;37.780;2024-01-27T03:58:32;99962.59;;;-4.20;72.27
82784;BME280;72520;55.762;37.780;2024-01-27T04:01:34;99971.28;;;-4.33;72.32
82784;BME280;72520;55.762;37.780;2024-01-27T04:04:36;99977.34;;;-4.35;71.97
82784;BME280;72520;55.762;37.780;2024-01-27T04:07:39;99973.00;;;-4.30;72.07
82784;BME280;72520;55.762;37.780;2024-01-27T04:10:43;99980.81;;;-4.33;72.85
82784;BME280;72520;55.762;37.780;2024-01-27T04:13:45;99994.66;;;-4.37;71.76
82784;BME280;72520;55.762;37.780;2024-01-27T04:16:47;99993.78;;;-4.32;73.02
82784;BME280;72520;55.762;37.780;2024-01-27T04:19:50;99997.22;;;-4.25;72.54
82784;BME280;72520;55.762;37.780;2024-01-27T04:22:52;100003.28;;;-4.23;72.13
82784;BME280;72520;55.762;37.780;2024-01-27T04:25:56;100010.25;;;-4.30;72.13
82784;BME280;72520;55.762;37.780;2024-01-27T04:28:58;100009.41;;;-4.39;72.19
82784;BME280;72520;55.762;37.780;2024-01-27T04:32:00;100010.28;;;-4.43;72.14
82784;BME280;72520;55.762;37.780;2024-01-27T04:35:03;100016.31;;;-4.34;71.95
82784;BME280;72520;55.762;37.780;2024-01-27T04:38:05;100011.97;;;-4.35;71.95
82784;BME280;72520;55.762;37.780;2024-01-27T04:41:13;100019.78;;;-4.30;72.28
82784;BME280;72520;55.762;37.780;2024-01-27T04:44:15;100023.22;;;-4.27;72.10
82784;BME280;72520;55.762;37.780;2024-01-27T04:47:17;100024.09;;;-4.28;72.02
82784;BME280;72520;55.762;37.780;2024-01-27T04:50:20;100027.53;;;-4.24;71.71
82784;BME280;72520;55.762;37.780;2024-01-27T04:53:22;100031.00;;;-4.25;71.61
82784;BME280;72520;55.762;37.780;2024-01-27T04:56:26;100031.84;;;-4.22;71.70
82784;BME280;72520;55.762;37.780;2024-01-27T04:59:28;100022.34;;;-4.17;72.02
82784;BME280;72520;55.762;37.780;2024-01-27T05:02:30;100027.53;;;-4.21;72.42
82784;BME280;72520;55.762;37.780;2024-01-27T05:05:32;100031.00;;;-4.19;71.37
82784;BME280;72520;55.762;37.780;2024-01-27T05:08:34;100019.72;;;-4.11;71.82
82784;BME280;72520;55.762;37.780;2024-01-27T05:11:38;100029.22;;;-4.06;71.54
82784;BME280;72520;55.762;37.780;2024-01-27T05:14:43;100036.16;;;-4.07;71.08
82784;BME280;72520;55.762;37.780;2024-01-27T05:17:46;100037.03;;;-4.09;71.36
82784;BME280;72520;55.762;37.780;2024-01-27T05:20:48;100043.94;;;-4.12;71.41
82784;BME280;72520;55.762;37.780;2024-01-27T05:23:50;100036.16;;;-4.10;71.73
82784;BME280;72520;55.762;37.780;2024-01-27T05:26:54;100046.59;;;-4.16;71.71
82784;BME280;72520;55.762;37.780;2024-01-27T05:29:56;100038.81;;;-4.24;71.67
82784;BME280;72520;55.762;37.780;2024-01-27T05:32:58;100046.56;;;-4.15;71.64
82784;BME280;72520;55.762;37.780;2024-01-27T05:36:01;100052.59;;;-4.08;71.40
82784;BME280;72520;55.762;37.780;2024-01-27T05:39:03;100060.38;;;-3.96;71.05
82784;BME280;72520;55.762;37.780;2024-01-27T05:42:07;100055.19;;;-3.96;70.74
82784;BME280;72520;55.762;37.780;2024-01-27T05:45:10;100061.25;;;-4.00;70.75
82784;BME280;72520;55.762;37.780;2024-01-27T05:48:12;100069.88;;;-3.90;71.32
82784;BME280;72520;55.762;37.780;2024-01-27T05:51:15;100075.97;;;-3.94;71.22
82784;BME280;72520;55.762;37.780;2024-01-27T05:54:17;100072.50;;;-3.98;71.66
82784;BME280;72520;55.762;37.780;2024-01-27T05:57:21;100065.63;;;-4.05;71.85
82784;BME280;72520;55.762;37.780;2024-01-27T06:00:23;100072.56;;;-4.08;71.30
82784;BME280;72520;55.762;37.780;2024-01-27T06:03:25;100082.91;;;-4.04;71.22
82784;BME280;72520;55.762;37.780;2024-01-27T06:06:28;100082.91;;;-3.98;71.44
82784;BME280;72520;55.762;37.780;2024-01-27T06:09:30;100080.31;;;-3.96;71.58
82784;BME280;72520;55.762;37.780;2024-01-27T06:12:34;100088.97;;;-3.96;71.11
82784;BME280;72520;55.762;37.780;2024-01-27T06:15:36;100087.25;;;-3.97;71.38
82784;BME280;72520;55.762;37.780;2024-01-27T06:18:38;100087.25;;;-3.92;71.12
82784;BME280;72520;55.762;37.780;2024-01-27T06:21:41;100092.41;;;-3.89;71.13
82784;BME280;72520;55.762;37.780;2024-01-27T06:24:43;100095.00;;;-3.79;70.95
82784;BME280;72520;55.762;37.780;2024-01-27T06:27:47;100097.56;;;-3.68;70.85
82784;BME280;72520;55.762;37.780;2024-01-27T06:30:50;100102.72;;;-3.62;70.86
82784;BME280;72520;55.762;37.780;2024-01-27T06:33:54;100103.59;;;-3.62;70.97
82784;BME280;72520;55.762;37.780;2024-01-27T06:36:57;100106.19;;;-3.60;70.28
82784;BME280;72520;55.762;37.780;2024-01-27T06:39:59;100109.66;;;-3.61;70.43
82784;BME280;72520;55.762;37.780;2024-01-27T06:43:03;100113.13;;;-3.64;70.74
82784;BME280;72520;55.762;37.780;2024-01-27T06:46:05;100113.94;;;-3.49;69.92
82784;BME280;72520;55.762;37.780;2024-01-27T06:49:08;100110.47;;;-3.50;69.80
82784;BME280;72520;55.762;37.780;2024-01-27T06:52:10;100118.25;;;-3.38;69.86
82784;BME280;72520;55.762;37.780;2024-01-27T06:55:13;100118.28;;;-3.44;70.24
82784;BME280;72520;55.762;37.780;2024-01-27T06:58:16;100124.28;;;-3.36;70.20
82784;BME280;72520;55.762;37.780;2024-01-27T07:01:19;100124.34;;;-3.46;69.72
82784;BME280;72520;55.762;37.780;2024-01-27T07:04:23;100126.97;;;-3.48;70.22
82784;BME280;72520;55.762;37.780;2024-01-27T07:07:26;100132.13;;;-3.43;69.58
82784;BME280;72520;55.762;37.780;2024-01-27T07:10:29;100135.59;;;-3.38;70.02
82784;BME280;72520;55.762;37.780;2024-01-27T07:13:33;100137.31;;;-3.36;69.09
82784;BME280;72520;55.762;37.780;2024-01-27T07:16:35;100139.94;;;-3.45;69.95
82784;BME280;72520;55.762;37.780;2024-01-27T07:19:37;100138.22;;;-3.49;70.09
82784;BME280;72520;55.762;37.780;2024-01-27T07:22:40;100138.22;;;-3.47;70.19
82784;BME280;72520;55.762;37.780;2024-01-27T07:25:42;100135.59;;;-3.46;69.79
82784;BME280;72520;55.762;37.780;2024-01-27T07:28:46;100146.84;;;-3.39;69.26
82784;BME280;72520;55.762;37.780;2024-01-27T07:31:49;100147.72;;;-3.43;69.25
82784;BME280;72520;55.762;37.780;2024-01-27T07:34:52;100147.69;;;-3.31;69.29
82784;BME280;72520;55.762;37.780;2024-01-27T07:37:55;100154.59;;;-3.23;69.50
82784;BME280;72520;55.762;37.780;2024-01-27T07:40:57;100157.13;;;-3.09;69.18
82784;BME280;72520;55.762;37.780;2024-01-27T07:44:08;100161.41;;;-2.94;69.30
82784;BME280;72520;55.762;37.780;2024-01-27T07:47:11;100154.41;;;-2.88;68.42
82784;BME280;72520;55.762;37.780;2024-01-27T07:50:13;100160.50;;;-2.86;68.41
82784;BME280;72520;55.762;37.780;2024-01-27T07:53:16;100167.38;;;-2.76;68.00
82784;BME280;72520;55.762;37.780;2024-01-27T07:56:18;100170.88;;;-2.80;68.64
82784;BME280;72520;55.762;37.780;2024-01-27T07:59:21;100179.50;;;-2.75;68.34
82784;BME280;72520;55.762;37.780;2024-01-27T08:02:24;100187.31;;;-2.70;68.01
82784;BME280;72520;55.762;37.780;2024-01-27T08:05:27;100189.84;;;-2.60;68.40
82784;BME280;72520;55.762;37.780;2024-01-27T08:08:29;100188.94;;;-2.57;68.31
82784;BME280;72520;55.762;37.780;2024-01-27T08:11:31;100195.00;;;-2.55;67.57
82784;BME280;72520;55.762;37.780;2024-01-27T08:14:35;100187.22;;;-2.58;67.59
82784;BME280;72520;55.762;37.780;2024-01-27T08:17:37;100191.53;;;-2.52;67.92
82784;BME280;72520;55.762;37.780;2024-01-27T08:20:40;100192.31;;;-2.41;67.57
82784;BME280;72520;55.762;37.780;2024-01-27T08:23:42;100191.47;;;-2.45;67.76
82784;BME280;72520;55.762;37.780;2024-01-27T08:26:45;100194.09;;;-2.46;67.96
82784;BME280;72520;55.762;37.780;2024-01-27T08:29:50;100198.47;;;-2.48;67.52
82784;BME280;72520;55.762;37.780;2024-01-27T08:32:52;100204.53;;;-2.51;67.63
82784;BME280;72520;55.762;37.780;2024-01-27T08:35:55;100203.72;;;-2.58;68.32
82784;BME280;72520;55.762;37.780;2024-01-27T08:38:57;100210.66;;;-2.58;67.83
82784;BME280;72520;55.762;37.780;2024-01-27T08:41:59;100206.28;;;-2.53;67.37
82784;BME280;72520;55.762;37.780;2024-01-27T08:45:04;100209.81;;;-2.60;67.30
82784;BME280;72520;55.762;37.780;2024-01-27T08:48:07;100215.03;;;-2.59;68.59
82784;BME280;72520;55.762;37.780;2024-01-27T08:51:10;100211.50;;;-2.54;68.03
82784;BME280;72520;55.762;37.780;2024-01-27T08:54:13;100212.25;;;-2.37;67.93
82784;BME280;72520;55.762;37.780;2024-01-27T08:57:15;100220.88;;;-2.25;67.96
82784;BME280;72520;55.762;37.780;2024-01-27T09:00:19;100212.91;;;-2.07;67.09
82784;BME280;72520;55.762;37.780;2024-01-27T09:03:22;100219.03;;;-2.14;67.17
82784;BME280;72520;55.762;37.780;2024-01-27T09:06:24;100220.88;;;-2.26;67.01
82784;BME280;72520;55.762;37.780;2024-01-27T09:09:26;100213.47;;;-0.31;60.69
82784;BME280;72520;55.762;37.780;2024-01-27T09:12:29;100206.41;;;-0.88;62.13
82784;BME280;72520;55.762;37.780;2024-01-27T09:15:33;100215.59;;;-1.27;62.73
82784;BME280;72520;55.762;37.780;2024-01-27T09:18:35;100216.13;;;-1.77;64.11
82784;BME280;72520;55.762;37.780;2024-01-27T09:21:38;100225.00;;;-1.98;64.81
82784;BME280;72520;55.762;37.780;2024-01-27T09:24:40;100230.38;;;-2.15;66.04
82784;BME280;72520;55.762;37.780;2024-01-27T09:27:42;100224.38;;;-2.30;66.35
82784;BME280;72520;55.762;37.780;2024-01-27T09:30:46;100228.84;;;-2.47;66.96
82784;BME280;72520;55.762;37.780;2024-01-27T09:33:49;100222.72;;;-2.39;67.11
82784;BME280;72520;55.762;37.780;2024-01-27T09:36:52;100221.88;;;-2.44;67.70
82784;BME280;72520;55.762;37.780;2024-01-27T09:39:55;100217.53;;;-2.43;67.42
82784;BME280;72520;55.762;37.780;2024-01-27T09:42:59;100214.97;;;-2.49;67.04
82784;BME280;72520;55.762;37.780;2024-01-27T09:46:03;100221.88;;;-2.45;67.29
82784;BME280;72520;55.762;37.780;2024-01-27T09:49:06;100226.16;;;-2.37;67.35
82784;BME280;72520;55.762;37.780;2024-01-27T09:52:13;100232.31;;;-2.51;67.44
82784;BME280;72520;55.762;37.780;2024-01-27T09:55:15;100233.06;;;-2.31;67.61
82784;BME280;72520;55.762;37.780;2024-01-27T09:58:18;100233.81;;;-2.11;67.77
82784;BME280;72520;55.762;37.780;2024-01-27T10:01:24;100227.72;;;-2.12;67.38
82784;BME280;72520;55.762;37.780;2024-01-27T10:04:27;100220.66;;;-2.00;66.87
82784;BME280;72520;55.762;37.780;2024-01-27T10:07:30;100237.16;;;-1.94;66.79
82784;BME280;72520;55.762;37.780;2024-01-27T10:10:33;100241.44;;;-1.90;67.64
82784;BME280;72520;55.762;37.780;2024-01-27T10:13:36;100246.69;;;-1.93;66.64
82784;BME280;72520;55.762;37.780;2024-01-27T10:16:43;100243.13;;;-1.81;66.27
82784;BME280;72520;55.762;37.780;2024-01-27T10:19:46;100240.53;;;-1.84;66.54
82784;BME280;72520;55.762;37.780;2024-01-27T10:22:48;100248.38;;;-1.86;65.97
82784;BME280;72520;55.762;37.780;2024-01-27T10:25:51;100251.00;;;-1.90;67.32
82784;BME280;72520;55.762;37.780;2024-01-27T10:28:54;100247.59;;;-2.00;67.35
82784;BME280;72520;55.762;37.780;2024-01-27T10:32:07;100257.16;;;-2.00;66.98
82784;BME280;72520;55.762;37.780;2024-01-27T10:35:09;100257.06;;;-1.84;67.22
82784;BME280;72520;55.762;37.780;2024-01-27T10:38:12;100268.31;;;-1.80;67.07
82784;BME280;72520;55.762;37.780;2024-01-27T10:41:21;100275.22;;;-1.73;66.23
82784;BME280;72520;55.762;37.780;2024-01-27T10:44:26;100274.47;;;-1.90;66.77
82784;BME280;72520;55.762;37.780;2024-01-27T10:47:32;100285.03;;;-2.06;66.84
82784;BME280;72520;55.762;37.780;2024-01-27T10:50:36;100287.59;;;-1.98;67.05
82784;BME280;72520;55.762;37.780;2024-01-27T10:53:39;100291.09;;;-2.03;66.41
82784;BME280;72520;55.762;37.780;2024-01-27T10:56:45;100299.75;;;-1.95;67.48
82784;BME280;72520;55.762;37.780;2024-01-27T10:59:48;100294.59;;;-2.01;67.16
82784;BME280;72520;55.762;37.780;2024-01-27T11:02:52;100298.91;;;-2.00;67.03
82784;BME280;72520;55.762;37.780;2024-01-27T11:05:56;100302.34;;;-1.94;67.09
82784;BME280;72520;55.762;37.780;2024-01-27T11:08:59;100301.41;;;-1.85;66.32
82784;BME280;72520;55.762;37.780;2024-01-27T11:12:05;100303.19;;;-1.87;66.30
82784;BME280;72520;55.762;37.780;2024-01-27T11:15:08;100306.69;;;-1.91;65.14
82784;BME280;72520;55.762;37.780;2024-01-27T11:18:15;100303.22;;;-1.96;65.94
82784;BME280;72520;55.762;37.780;2024-01-27T11:21:17;100316.31;;;-2.02;66.37
82784;BME280;72520;55.762;37.780;2024-01-27T11:24:23;100313.53;;;-1.78;66.92
82784;BME280;72520;55.762;37.780;2024-01-27T11:27:27;100322.38;;;-1.97;66.53
82784;BME280;72520;55.762;37.780;2024-01-27T11:30:31;100327.72;;;-2.23;66.83
82784;BME280;72520;55.762;37.780;2024-01-27T11:33:42;100319.16;;;-2.48;67.90
82784;BME280;72520;55.762;37.780;2024-01-27T11:36:45;100333.97;;;-2.53;68.19
82784;BME280;72520;55.762;37.780;2024-01-27T11:39:48;100333.78;;;-2.20;67.40
82784;BME280;72520;55.762;37.780;2024-01-27T11:42:56;100343.47;;;-2.38;67.24
82784;BME280;72520;55.762;37.780;2024-01-27T11:45:59;100342.63;;;-2.51;67.33
82784;BME280;72520;55.762;37.780;2024-01-27T11:49:03;100347.06;;;-2.74;68.10
82784;BME280;72520;55.762;37.780;2024-01-27T11:52:06;100351.44;;;-2.81;68.69
82784;BME280;72520;55.762;37.780;2024-01-27T11:55:09;100343.56;;;-2.67;67.70
82784;BME280;72520;55.762;37.780;2024-01-27T11:58:11;100350.56;;;-2.77;67.66
82784;BME280;72520;55.762;37.780;2024-01-27T12:01:13;100356.66;;;-2.84;68.61
82784;BME280;72520;55.762;37.780;2024-01-27T12:04:18;100366.19;;;-2.81;68.36
82784;BME280;72520;55.762;37.780;2024-01-27T12:07:22;100373.94;;;-2.65;68.30
82784;BME280;72520;55.762;37.780;2024-01-27T12:10:24;100374.00;;;-2.74;68.82
82784;BME280;72520;55.762;37.780;2024-01-27T12:13:27;100377.47;;;-2.85;68.89
82784;BME280;72520;55.762;37.780;2024-01-27T12:16:29;100373.16;;;-2.88;68.67
82784;BME280;72520;55.762;37.780;2024-01-27T12:19:33;100367.06;;;-2.84;69.40
82784;BME280;72520;55.762;37.780;2024-01-27T12:22:35;100374.03;;;-3.02;69.45
82784;BME280;72520;55.762;37.780;2024-01-27T12:25:38;100387.91;;;-2.96;69.53
82784;BME280;72520;55.762;37.780;2024-01-27T12:28:40;100399.22;;;-3.08;69.27
82784;BME280;72520;55.762;37.780;2024-01-27T12:31:43;100399.22;;;-3.08;69.63
82784;BME280;72520;55.762;37.780;2024-01-27T12:34:47;100409.63;;;-3.01;69.63
82784;BME280;72520;55.762;37.780;2024-01-27T12:37:51;100413.97;;;-2.97;69.18
82784;BME280;72520;55.762;37.780;2024-01-27T12:40:54;100423.50;;;-2.90;69.31
82784;BME280;72520;55.762;37.780;2024-01-27T12:43:56;100421.75;;;-2.85;69.76
82784;BME280;72520;55.762;37.780;2024-01-27T12:46:58;100426.09;;;-2.78;68.75
82784;BME280;72520;55.762;37.780;2024-01-27T12:50:03;100430.41;;;-2.74;69.10
82784;BME280;72520;55.762;37.780;2024-01-27T12:53:06;100438.22;;;-2.71;68.91
82784;BME280;72520;55.762;37.780;2024-01-27T12:56:08;100440.84;;;-2.71;69.08
82784;BME280;72520;55.762;37.780;2024-01-27T12:59:11;100439.97;;;-2.66;68.51
82784;BME280;72520;55.762;37.780;2024-01-27T13:02:14;100444.34;;;-2.72;68.41
82784;BME280;72520;55.762;37.780;2024-01-27T13:05:18;100446.03;;;-2.68;68.54
82784;BME280;72520;55.762;37.780;2024-01-27T13:08:21;100454.72;;;-2.68;68.96
82784;BME280;72520;55.762;37.780;2024-01-27T13:11:23;100453.84;;;-2.65;68.64
82784;BME280;72520;55.762;37.780;2024-01-27T13:14:26;100459.06;;;-2.64;68.50
82784;BME280;72520;55.762;37.780;2024-01-27T13:17:28;100459.94;;;-2.66;69.10
82784;BME280;72520;55.762;37.780;2024-01-27T13:20:32;100467.72;;;-2.54;68.01
82784;BME280;72520;55.762;37.780;2024-01-27T13:23:34;100475.53;;;-2.57;68.18
82784;BME280;72520;55.762;37.780;2024-01-27T13:26:36;100480.75;;;-2.52;67.98
82784;BME280;72520;55.762;37.780;2024-01-27T13:29:39;100487.72;;;-2.59;67.74
82784;BME280;72520;55.762;37.780;2024-01-27T13:32:41;100485.97;;;-2.60;68.33
82784;BME280;72520;55.762;37.780;2024-01-27T13:35:45;100490.31;;;-2.68;68.08
82784;BME280;72520;55.762;37.780;2024-01-27T13:38:48;100499.00;;;-2.71;68.39
82784;BME280;72520;55.762;37.780;2024-01-27T13:41:50;100501.63;;;-2.71;68.53
82784;BME280;72520;55.762;37.780;2024-01-27T13:44:52;100496.41;;;-2.66;68.24
82784;BME280;72520;55.762;37.780;2024-01-27T13:47:54;100512.91;;;-2.53;68.09
82784;BME280;72520;55.762;37.780;2024-01-27T13:50:58;100509.44;;;-2.63;68.22
82784;BME280;72520;55.762;37.780;2024-01-27T13:54:00;100508.56;;;-2.56;68.57
82784;BME280;72520;55.762;37.780;2024-01-27T13:57:03;100514.63;;;-2.54;68.30
82784;BME280;72520;55.762;37.780;2024-01-27T14:00:07;100518.97;;;-2.53;68.51
82784;BME280;72520;55.762;37.780;2024-01-27T14:03:09;100512.84;;;-2.41;68.09
82784;BME280;72520;55.762;37.780;2024-01-27T14:06:13;100514.63;;;-2.49;69.12
82784;BME280;72520;55.762;37.780;2024-01-27T14:09:16;100519.84;;;-2.49;69.77
82784;BME280;72520;55.762;37.780;2024-01-27T14:12:19;100528.53;;;-2.49;68.48
82784;BME280;72520;55.762;37.780;2024-01-27T14:15:22;100529.38;;;-2.44;69.16
82784;BME280;72520;55.762;37.780;2024-01-27T14:18:24;100530.25;;;-2.57;68.96
82784;BME280;72520;55.762;37.780;2024-01-27T14:21:28;100535.47;;;-2.48;68.68
82784;BME280;72520;55.762;37.780;2024-01-27T14:24:30;100541.56;;;-2.46;68.51
82784;BME280;72520;55.762;37.780;2024-01-27T14:27:33;100538.06;;;-2.51;68.82
82784;BME280;72520;55.762;37.780;2024-01-27T14:30:36;100540.69;;;-2.51;68.64
82784;BME280;72520;55.762;37.780;2024-01-27T14:33:40;100539.81;;;-2.68;68.61
82784;BME280;72520;55.762;37.780;2024-01-27T14:36:44;100545.03;;;-2.67;68.87
82784;BME280;72520;55.762;37.780;2024-01-27T14:39:46;100544.19;;;-2.63;68.65
82784;BME280;72520;55.762;37.780;2024-01-27T14:42:49;100551.97;;;-2.75;69.11
82784;BME280;72520;55.762;37.780;2024-01-27T14:45:51;100555.44;;;-2.74;68.50
82784;BME280;72520;55.762;37.780;2024-01-27T14:48:53;100558.94;;;-2.90;69.46
82784;BME280;72520;55.762;37.780;2024-01-27T14:51:57;100558.06;;;-2.85;69.08
82784;BME280;72520;55.762;37.780;2024-01-27T14:54:59;100565.00;;;-2.87;69.30
82784;BME280;72520;55.762;37.780;2024-01-27T14:58:02;100562.38;;;-2.97;69.86
82784;BME280;72520;55.762;37.780;2024-01-27T15:01:05;100565.03;;;-2.76;69.45
82784;BME280;72520;55.762;37.780;2024-01-27T15:04:07;100566.72;;;-2.89;69.75
82784;BME280;72520;55.762;37.780;2024-01-27T15:07:11;100566.75;;;-2.81;69.16
82784;BME280;72520;55.762;37.780;2024-01-27T15:10:16;100571.06;;;-3.03;69.91
82784;BME280;72520;55.762;37.780;2024-01-27T15:13:19;100573.69;;;-2.89;69.40
82784;BME280;72520;55.762;37.780;2024-01-27T15:16:23;100568.50;;;-2.83;69.18
82784;BME280;72520;55.762;37.780;2024-01-27T15:19:27;100572.81;;;-2.88;69.50
82784;BME280;72520;55.762;37.780;2024-01-27T15:22:30;100571.94;;;-2.93;69.65
82784;BME280;72520;55.762;37.780;2024-01-27T15:25:32;100574.56;;;-2.90;69.83
82784;BME280;72520;55.762;37.780;2024-01-27T15:28:35;100578.88;;;-2.94;70.33
82784;BME280;72520;55.762;37.780;2024-01-27T15:31:37;100575.41;;;-2.72;69.57
82784;BME280;72520;55.762;37.780;2024-01-27T15:34:39;100580.66;;;-2.66;68.99
82784;BME280;72520;55.762;37.780;2024-01-27T15:37:45;100582.38;;;-2.75;68.92
82784;BME280;72520;55.762;37.780;2024-01-27T15:40:48;100584.97;;;-2.84;69.44
82784;BME280;72520;55.762;37.780;2024-01-27T15:43:50;100585.84;;;-2.84;69.59
82784;BME280;72520;55.762;37.780;2024-01-27T15:46:52;100588.44;;;-2.84;70.21